AFL703 UUEE-USRR
Flight info
| Callsign | AFL703 |
|---|---|
| Flight time | N/A |
| Altitude | 35000 |
| Route | RILPO3H RILPO T753 AGBIR T783 BALOB N155 SUNAD/K0826F370 N155 UNISO B229 URMAN T631 GISOT DCT ARMEK ARMEK1T |
| Aircraft | A320/M-SDE3FGHIRWY/LB1 |
Departure
| Time | 2026-05-06 13:50 |
|---|---|
| Airport | Sheremetyevo International Airport (UUEE) |
Arrival
| Time | N/A |
|---|---|
| Airport | Surgut International Airport (USRR) |
| Time | Latitude | Longitude | Altitude | Speed | Heading |
|---|---|---|---|---|---|
| 2026-05-06 13:22 | 55.97798 | 37.41813 | 639 ft | 0 kts | 345° |
| 2026-05-06 13:41 | 55.97784 | 37.41819 | 640 ft | 2 kts | 345° |
| 2026-05-06 13:41 | 55.97768 | 37.41827 | 641 ft | 2 kts | 345° |
| 2026-05-06 13:41 | 55.97752 | 37.41835 | 639 ft | 2 kts | 345° |
| 2026-05-06 13:42 | 55.97736 | 37.41838 | 639 ft | 2 kts | 26° |
| 2026-05-06 13:42 | 55.97722 | 37.41822 | 643 ft | 2 kts | 53° |
| 2026-05-06 13:42 | 55.97715 | 37.41796 | 640 ft | 2 kts | 81° |
| 2026-05-06 13:42 | 55.97713 | 37.41774 | 639 ft | 1 kts | 77° |
| 2026-05-06 13:43 | 55.97712 | 37.41771 | 639 ft | 0 kts | 76° |
| 2026-05-06 13:45 | 55.97713 | 37.41771 | 639 ft | 0 kts | 76° |
| 2026-05-06 13:46 | 55.97726 | 37.41860 | 642 ft | 13 kts | 75° |
| 2026-05-06 13:46 | 55.97747 | 37.42001 | 639 ft | 12 kts | 75° |
| 2026-05-06 13:46 | 55.97717 | 37.42124 | 639 ft | 14 kts | 165° |
| 2026-05-06 13:46 | 55.97699 | 37.42286 | 641 ft | 16 kts | 76° |
| 2026-05-06 13:47 | 55.97720 | 37.42422 | 646 ft | 16 kts | 75° |
| 2026-05-06 13:47 | 55.97758 | 37.42674 | 640 ft | 18 kts | 75° |
| 2026-05-06 13:47 | 55.97730 | 37.42796 | 645 ft | 0 kts | 156° |
| 2026-05-06 13:48 | 55.97726 | 37.42799 | 642 ft | 3 kts | 156° |
| 2026-05-06 13:48 | 55.97616 | 37.42851 | 638 ft | 11 kts | 165° |
| 2026-05-06 13:48 | 55.97595 | 37.42830 | 641 ft | 3 kts | 272° |
| 2026-05-06 13:48 | 55.97598 | 37.42801 | 639 ft | 1 kts | 277° |
| 2026-05-06 13:49 | 55.97594 | 37.42784 | 641 ft | 2 kts | 255° |
| 2026-05-06 13:49 | 55.97565 | 37.42583 | 640 ft | 49 kts | 255° |
| 2026-05-06 13:49 | 55.97419 | 37.41591 | 637 ft | 113 kts | 255° |
| 2026-05-06 13:49 | 55.97169 | 37.39917 | 647 ft | 162 kts | 255° |
| 2026-05-06 13:50 | 55.96879 | 37.37881 | 1101 ft | 171 kts | 255° |
| 2026-05-06 13:50 | 55.96548 | 37.35758 | 1678 ft | 186 kts | 258° |
| 2026-05-06 13:50 | 55.96170 | 37.33386 | 1949 ft | 211 kts | 256° |
| 2026-05-06 13:50 | 55.95742 | 37.30714 | 2344 ft | 236 kts | 255° |
| 2026-05-06 13:51 | 55.95273 | 37.27779 | 2942 ft | 250 kts | 256° |
| 2026-05-06 13:51 | 55.94801 | 37.24804 | 3796 ft | 253 kts | 256° |
| 2026-05-06 13:51 | 55.94320 | 37.21761 | 4737 ft | 255 kts | 256° |
| 2026-05-06 13:51 | 55.93836 | 37.18697 | 5691 ft | 254 kts | 256° |
| 2026-05-06 13:52 | 55.93357 | 37.15684 | 6706 ft | 250 kts | 257° |
| 2026-05-06 13:52 | 55.92887 | 37.12725 | 7548 ft | 251 kts | 256° |
| 2026-05-06 13:52 | 55.92410 | 37.09717 | 8374 ft | 252 kts | 256° |
| 2026-05-06 13:52 | 55.91930 | 37.06683 | 9193 ft | 255 kts | 256° |
| 2026-05-06 13:53 | 55.91668 | 37.03567 | 9953 ft | 256 kts | 273° |
| 2026-05-06 13:53 | 55.92111 | 37.00471 | 10632 ft | 263 kts | 294° |
| 2026-05-06 13:53 | 55.93260 | 36.97864 | 11296 ft | 275 kts | 316° |
| 2026-05-06 13:53 | 55.94842 | 36.95853 | 11998 ft | 281 kts | 320° |
| 2026-05-06 13:54 | 55.96451 | 36.93918 | 12698 ft | 286 kts | 325° |
| 2026-05-06 13:54 | 55.98351 | 36.92642 | 13375 ft | 299 kts | 344° |
| 2026-05-06 13:54 | 56.00472 | 36.92587 | 14008 ft | 313 kts | 5° |
| 2026-05-06 13:54 | 56.02555 | 36.93921 | 14590 ft | 326 kts | 26° |
| 2026-05-06 13:55 | 56.04487 | 36.96151 | 15185 ft | 331 kts | 29° |
| 2026-05-06 13:55 | 56.06399 | 36.98396 | 15775 ft | 334 kts | 29° |
| 2026-05-06 13:55 | 56.08356 | 37.00691 | 16376 ft | 337 kts | 30° |
| 2026-05-06 13:55 | 56.10202 | 37.03359 | 16940 ft | 345 kts | 43° |
| 2026-05-06 13:56 | 56.11699 | 37.06782 | 17489 ft | 354 kts | 57° |
| 2026-05-06 13:56 | 56.12767 | 37.10887 | 17636 ft | 373 kts | 72° |
| 2026-05-06 13:56 | 56.13409 | 37.15383 | 18023 ft | 380 kts | 76° |
| 2026-05-06 13:56 | 56.14049 | 37.20009 | 18518 ft | 384 kts | 75° |
| 2026-05-06 13:57 | 56.14706 | 37.24690 | 19008 ft | 387 kts | 75° |
| 2026-05-06 13:57 | 56.15373 | 37.29397 | 19504 ft | 390 kts | 74° |
| 2026-05-06 13:57 | 56.16121 | 37.33257 | 19891 ft | 392 kts | 64° |
| 2026-05-06 13:57 | 56.17435 | 37.37554 | 20368 ft | 392 kts | 53° |
| 2026-05-06 13:58 | 56.18996 | 37.41605 | 20863 ft | 395 kts | 53° |
| 2026-05-06 13:58 | 56.20560 | 37.45688 | 21337 ft | 398 kts | 53° |
| 2026-05-06 13:58 | 56.22113 | 37.49768 | 21803 ft | 400 kts | 53° |
| 2026-05-06 13:58 | 56.23688 | 37.53919 | 22272 ft | 403 kts | 53° |
| 2026-05-06 13:59 | 56.25276 | 37.58108 | 22721 ft | 407 kts | 53° |
| 2026-05-06 13:59 | 56.26877 | 37.62333 | 23174 ft | 410 kts | 53° |
| 2026-05-06 13:59 | 56.28495 | 37.66596 | 23592 ft | 412 kts | 53° |
| 2026-05-06 13:59 | 56.30134 | 37.70860 | 23954 ft | 414 kts | 50° |
| 2026-05-06 14:00 | 56.31946 | 37.74837 | 24343 ft | 414 kts | 46° |
| 2026-05-06 14:00 | 56.33813 | 37.78838 | 24741 ft | 416 kts | 46° |
| 2026-05-06 14:00 | 56.35716 | 37.82808 | 25126 ft | 416 kts | 41° |
| 2026-05-06 14:00 | 56.37889 | 37.86203 | 25489 ft | 412 kts | 31° |
| 2026-05-06 14:01 | 56.40323 | 37.88802 | 25879 ft | 408 kts | 20° |
| 2026-05-06 14:01 | 56.42990 | 37.90612 | 26012 ft | 410 kts | 9° |
| 2026-05-06 14:01 | 56.45803 | 37.91529 | 26147 ft | 411 kts | 359° |
| 2026-05-06 14:01 | 56.48650 | 37.91900 | 26275 ft | 418 kts | 359° |
| 2026-05-06 14:02 | 56.51575 | 37.92279 | 26406 ft | 425 kts | 359° |
| 2026-05-06 14:02 | 56.54552 | 37.92674 | 26553 ft | 431 kts | 359° |
| 2026-05-06 14:02 | 56.57573 | 37.93085 | 26811 ft | 435 kts | 359° |
| 2026-05-06 14:02 | 56.60610 | 37.93505 | 27129 ft | 437 kts | 359° |
| 2026-05-06 14:03 | 56.63612 | 37.93987 | 27446 ft | 441 kts | 3° |
| 2026-05-06 14:03 | 56.66625 | 37.95226 | 27750 ft | 449 kts | 13° |
| 2026-05-06 14:03 | 56.69536 | 37.97416 | 28045 ft | 457 kts | 23° |
| 2026-05-06 14:03 | 56.72245 | 38.00528 | 28336 ft | 465 kts | 33° |
| 2026-05-06 14:04 | 56.74681 | 38.04482 | 28608 ft | 471 kts | 40° |
| 2026-05-06 14:04 | 56.77031 | 38.08683 | 28895 ft | 472 kts | 40° |
| 2026-05-06 14:04 | 56.79353 | 38.12845 | 29181 ft | 474 kts | 40° |
| 2026-05-06 14:04 | 56.81717 | 38.17096 | 29454 ft | 475 kts | 40° |
| 2026-05-06 14:05 | 56.84074 | 38.21347 | 29724 ft | 477 kts | 40° |
| 2026-05-06 14:05 | 56.86437 | 38.25617 | 30038 ft | 477 kts | 40° |
| 2026-05-06 14:05 | 56.88818 | 38.29811 | 30370 ft | 474 kts | 38° |
| 2026-05-06 14:05 | 56.91254 | 38.33804 | 30675 ft | 472 kts | 36° |
| 2026-05-06 14:06 | 56.93768 | 38.37698 | 30966 ft | 470 kts | 34° |
| 2026-05-06 14:06 | 56.96299 | 38.41510 | 31290 ft | 469 kts | 34° |
| 2026-05-06 14:06 | 56.98823 | 38.45306 | 31598 ft | 469 kts | 34° |
| 2026-05-06 14:06 | 57.01305 | 38.49084 | 31894 ft | 468 kts | 34° |
| 2026-05-06 14:07 | 57.03803 | 38.52951 | 32204 ft | 468 kts | 35° |
| 2026-05-06 14:07 | 57.06250 | 38.56803 | 32511 ft | 467 kts | 35° |
| 2026-05-06 14:07 | 57.08716 | 38.60726 | 32818 ft | 467 kts | 36° |
| 2026-05-06 14:07 | 57.11171 | 38.64650 | 33115 ft | 466 kts | 36° |
| 2026-05-06 14:08 | 57.13616 | 38.68565 | 33414 ft | 466 kts | 35° |
| 2026-05-06 14:08 | 57.16063 | 38.72481 | 33716 ft | 465 kts | 35° |
| 2026-05-06 14:08 | 57.18508 | 38.76385 | 33992 ft | 464 kts | 35° |
| 2026-05-06 14:08 | 57.20950 | 38.80283 | 34229 ft | 464 kts | 35° |
| 2026-05-06 14:09 | 57.23365 | 38.84148 | 34449 ft | 464 kts | 36° |
| 2026-05-06 14:09 | 57.25810 | 38.88063 | 34657 ft | 465 kts | 36° |
| 2026-05-06 14:09 | 57.28261 | 38.91988 | 34825 ft | 465 kts | 36° |
| 2026-05-06 14:09 | 57.30719 | 38.95932 | 34866 ft | 465 kts | 36° |
| 2026-05-06 14:10 | 57.35581 | 39.03764 | 34867 ft | 465 kts | 36° |
| 2026-05-06 14:10 | 57.40479 | 39.11691 | 34864 ft | 465 kts | 36° |
| 2026-05-06 14:11 | 57.45335 | 39.19588 | 34861 ft | 466 kts | 36° |
| 2026-05-06 14:11 | 57.50190 | 39.27504 | 34860 ft | 466 kts | 36° |
| 2026-05-06 14:12 | 57.55085 | 39.35463 | 34865 ft | 466 kts | 36° |
| 2026-05-06 14:12 | 57.59949 | 39.43405 | 34866 ft | 466 kts | 36° |
| 2026-05-06 14:13 | 57.64838 | 39.51419 | 34867 ft | 467 kts | 36° |
| 2026-05-06 14:13 | 57.69716 | 39.59467 | 34860 ft | 466 kts | 36° |
| 2026-05-06 14:14 | 57.74575 | 39.67500 | 34852 ft | 467 kts | 36° |
| 2026-05-06 14:14 | 57.79424 | 39.75541 | 34856 ft | 467 kts | 36° |
| 2026-05-06 14:15 | 57.84302 | 39.83670 | 34852 ft | 468 kts | 36° |
| 2026-05-06 14:15 | 57.89135 | 39.91769 | 34853 ft | 469 kts | 36° |
| 2026-05-06 14:16 | 57.94007 | 40.00009 | 34854 ft | 469 kts | 36° |
| 2026-05-06 14:16 | 57.98827 | 40.08227 | 34853 ft | 469 kts | 36° |
| 2026-05-06 14:17 | 58.03680 | 40.16514 | 34854 ft | 470 kts | 36° |
| 2026-05-06 14:17 | 58.08516 | 40.24782 | 34857 ft | 471 kts | 36° |
| 2026-05-06 14:18 | 58.13379 | 40.33135 | 34852 ft | 471 kts | 36° |
| 2026-05-06 14:18 | 58.17802 | 40.42343 | 34850 ft | 482 kts | 51° |
| 2026-05-06 14:19 | 58.21286 | 40.53311 | 34841 ft | 485 kts | 55° |
| 2026-05-06 14:19 | 58.24722 | 40.64338 | 34836 ft | 485 kts | 55° |
| 2026-05-06 14:20 | 58.28156 | 40.75371 | 34839 ft | 486 kts | 55° |
| 2026-05-06 14:20 | 58.31567 | 40.86435 | 34832 ft | 486 kts | 56° |
| 2026-05-06 14:21 | 58.34975 | 40.97566 | 34834 ft | 487 kts | 56° |
| 2026-05-06 14:21 | 58.38374 | 41.08686 | 34834 ft | 487 kts | 56° |
| 2026-05-06 14:22 | 58.41784 | 41.19877 | 34837 ft | 488 kts | 56° |
| 2026-05-06 14:22 | 58.45189 | 41.31131 | 34836 ft | 488 kts | 56° |
| 2026-05-06 14:23 | 58.48565 | 41.42331 | 34838 ft | 488 kts | 56° |
| 2026-05-06 14:23 | 58.51951 | 41.53606 | 34833 ft | 488 kts | 57° |
| 2026-05-06 14:24 | 58.55305 | 41.64859 | 34828 ft | 489 kts | 57° |
| 2026-05-06 14:24 | 58.58671 | 41.76197 | 34832 ft | 489 kts | 57° |
| 2026-05-06 14:25 | 58.62037 | 41.87566 | 34833 ft | 489 kts | 57° |
| 2026-05-06 14:25 | 58.65374 | 41.98918 | 34829 ft | 490 kts | 57° |
| 2026-05-06 14:26 | 58.68701 | 42.10306 | 34827 ft | 490 kts | 58° |
| 2026-05-06 14:26 | 58.72037 | 42.21787 | 34827 ft | 490 kts | 58° |
| 2026-05-06 14:27 | 58.75344 | 42.33214 | 34824 ft | 491 kts | 58° |
| 2026-05-06 14:27 | 58.78669 | 42.44735 | 34825 ft | 491 kts | 58° |
| 2026-05-06 14:28 | 58.81996 | 42.56277 | 34826 ft | 491 kts | 58° |
| 2026-05-06 14:28 | 58.85292 | 42.67767 | 34824 ft | 492 kts | 58° |
| 2026-05-06 14:29 | 58.88602 | 42.79379 | 34823 ft | 492 kts | 59° |
| 2026-05-06 14:29 | 58.91876 | 42.90920 | 34823 ft | 492 kts | 59° |
| 2026-05-06 14:30 | 58.95150 | 43.02528 | 34818 ft | 492 kts | 59° |
| 2026-05-06 14:30 | 58.98426 | 43.14193 | 34817 ft | 492 kts | 59° |
| 2026-05-06 14:31 | 59.01685 | 43.25879 | 34816 ft | 492 kts | 59° |
| 2026-05-06 14:31 | 59.04924 | 43.37559 | 34811 ft | 492 kts | 59° |
| 2026-05-06 14:32 | 59.08151 | 43.49248 | 34812 ft | 492 kts | 59° |
| 2026-05-06 14:32 | 59.11376 | 43.60990 | 34808 ft | 492 kts | 60° |
| 2026-05-06 14:33 | 59.14586 | 43.72701 | 34810 ft | 492 kts | 60° |
| 2026-05-06 14:33 | 59.17800 | 43.84505 | 34808 ft | 492 kts | 60° |
| 2026-05-06 14:34 | 59.20987 | 43.96300 | 34807 ft | 493 kts | 60° |
| 2026-05-06 14:34 | 59.24177 | 44.08153 | 34805 ft | 493 kts | 60° |
| 2026-05-06 14:35 | 59.26683 | 44.18184 | 34805 ft | 494 kts | 68° |
| 2026-05-06 14:35 | 59.29537 | 44.32791 | 34804 ft | 494 kts | 68° |
| 2026-05-06 14:36 | 59.31575 | 44.43240 | 34799 ft | 494 kts | 68° |
| 2026-05-06 14:36 | 59.32389 | 44.47419 | 34799 ft | 494 kts | 68° |